ソルト・レーク・シティ国際空港の過去48時間の天気

ソルト・レーク・シティ国際空港 (Salt Lake City, Salt Lake City International Airport)

現在時刻: 5/25 19:16 MDT (5/26 01:16 UTC) 以下の時間は現地時間です。

過去48時間のMETAR気象情報
時間 風向 風速(m/s) 視程 気温(℃) 湿度(%) 気圧(hPa) 天気現象
25 18:54 4 10km以上 26.1 15 1012.2
25 17:54 5 10km以上 26.7 15 1012.8
25 16:54 北北西 5 10km以上 27.2 18 1013.1
25 15:54 5 10km以上 26.1 17 1013.8
25 14:54 3 10km以上 25.6 16 1014.3
25 13:54 不定 2 10km以上 24.4 18 1015
25 12:54 西北西 4 10km以上 23.9 16 1015.6
25 11:54 西 3 10km以上 22.8 15 1016.1
25 10:54 西 3 10km以上 21.1 14 1016
25 09:54 不定 2 10km以上 18.9 21 1016.1
25 08:54 南南東 4 10km以上 16.1 31 1016.3
25 07:54 南東 4 10km以上 13.9 28 1016.1
25 06:54 南東 4 10km以上 11.7 33 1016.1
25 05:54 南南東 3 10km以上 10.6 39 1015.7
25 04:54 南南東 3 10km以上 11.1 39 1015
25 03:54 南東 3 10km以上 11.1 38 1014.6
25 02:54 南南東 3 10km以上 12.2 40 1014.4
25 01:54 南東 2 10km以上 12.8 40 1014.3
25 00:54 南南東 2 10km以上 13.9 37 1014
24 23:54 南南東 3 10km以上 15 36 1014
24 22:54 北西 3 10km以上 17.2 28 1013.5
24 21:54 西北西 3 10km以上 18.3 24 1012.5
24 20:54 西 3 10km以上 19.4 21 1012.1
24 19:54 不定 2 10km以上 21.1 18 1011.8
24 18:54 4 10km以上 21.7 18 1011.8
24 17:54 北西 4 10km以上 21.7 17 1012.3
24 16:54 西北西 4 10km以上 21.7 17 1012.5
24 15:54 北北西 10 10km以上 21.7 17 1012.7
24 14:54 西北西 5 10km以上 21.1 18 1012.8
24 13:54 北北西 5 10km以上 20 21 1012.9
24 12:54 西北西 7 10km以上 20 21 1013.2
24 11:54 静穏 0 10km以上 18.3 22 1014
24 10:54 2 10km以上 18.3 23 1013.6
24 09:54 3 10km以上 16.7 24 1013.9
24 08:54 南南東 3 10km以上 13.3 30 1014.2
24 07:54 南南東 4 10km以上 11.7 32 1013.9
24 06:54 南東 4 10km以上 10 36 1014.1
24 05:54 東南東 5 10km以上 9.4 41 1014
24 04:54 南東 4 10km以上 9.4 37 1014
24 03:54 南東 3 10km以上 10 34 1013.9
24 02:54 南東 4 10km以上 10 32 1013.9
24 01:54 3 10km以上 10.6 29 1014
24 00:54 南南東 2 10km以上 11.7 27 1014.3
23 23:54 2 10km以上 12.2 26 1014.8
23 22:54 静穏 0 10km以上 14.4 27 1014.8
23 21:54 西北西 3 10km以上 15 19 1014.4
23 20:54 西 3 10km以上 15 14 1014.2
23 19:54 西北西 2 10km以上 17.8 8 1014.2
KSLC 260054Z 01007KT 10SM FEW150 26/M02 A3001 RMK AO2 SLP122 T02611022
KSLC 252354Z 01009KT 10SM FEW150 27/M02 A3003 RMK AO2 SLP128 T02671017 10272 20217 58013
KSLC 252254Z 33009KT 10SM CLR 27/01 A3005 RMK AO2 SLP131 T02720006
KSLC 252154Z COR 01010G14 10SM CLR 26/M01 A3006 RMK AO2 SLP138 T02611006
KSLC 252054Z 35005KT 10SM FEW110 26/M02 A3007 RMK AO2 SLP143 T02561017 58016
KSLC 251954Z VRB03KT 10SM FEW110 24/M02 A3009 RMK AO2 SLP150 T02441017
KSLC 251854Z 30007KT 10SM FEW110 FEW230 24/M03 A3011 RMK AO2 SLP156 ACSL DSNT SE T02391033
KSLC 251754Z 27006KT 10SM FEW120 FEW230 23/M06 A3013 RMK AO2 SLP161 T02281056 10228 20106 50001
KSLC 251654Z 27005KT 10SM FEW120 FEW230 21/M07 A3013 RMK AO2 SLP160 ACSL DSNT NE AND SE T02111072
KSLC 251554Z VRB04KT 10SM FEW140 FEW230 19/M04 A3013 RMK AO2 SLP161 ACSL DSNT NE T01891039
KSLC 251454Z 15007KT 10SM FEW150 SCT220 16/M01 A3012 RMK AO2 SLP163 T01611011 51008
KSLC 251354Z 14008KT 10SM FEW220 14/M04 A3012 RMK AO2 SLP161 T01391044
KSLC 251254Z 14007KT 10SM BKN180 12/M04 A3011 RMK AO2 SLP161 T01171039
KSLC 251154Z COR 15006KT 10SM BKN180 11/M03 A3009 RMK AO2 SLP157 T01061028 10150 20100 53010
KSLC 251054Z 15006KT 10SM FEW100 FEW200 11/M02 A3008 RMK AO2 SLP150 T01111022
KSLC 250954Z 14005KT 10SM FEW100 FEW200 11/M03 A3007 RMK AO2 SLP146 T01111028
KSLC 250854Z 16005KT 10SM SCT200 12/M01 A3006 RMK AO2 SLP144 T01221011 51003
KSLC 250754Z 13004KT 10SM SCT200 13/M01 A3006 RMK AO2 SLP143 T01281006
KSLC 250654Z 16004KT 10SM FEW200 14/M01 A3005 RMK AO2 SLP140 T01391006 402280089
KSLC 250554Z 15005KT 10SM FEW200 15/00 A3005 RMK AO2 SLP140 T01500000 10222 20144 51016
KSLC 250454Z 31005KT 10SM FEW200 17/M02 A3004 RMK AO2 SLP135 T01721017
KSLC 250354Z 30006KT 10SM FEW095 FEW200 18/M03 A3001 RMK AO2 SLP125 T01831028
KSLC 250254Z 27005KT 10SM FEW095 FEW200 19/M03 A3000 RMK AO2 SLP121 T01941033 53001
KSLC 250154Z VRB04KT 10SM FEW095 FEW200 21/M04 A2999 RMK AO2 SLP118 T02111039
KSLC 250054Z 36007KT 10SM FEW095 FEW200 22/M04 A2998 RMK AO2 SLP118 T02171039
KSLC 242354Z 32007G15KT 10SM FEW095 FEW200 22/M04 A2999 RMK AO2 SLP123 T02171044 10228 20183 58004
KSLC 242254Z 29008G22KT 10SM FEW095 SCT200 22/M04 A3000 RMK AO2 PK WND 34027/2200 SLP125 ACSL DSNT SW T02171044
KSLC 242154Z 34019G26KT 10SM SCT090 SCT140 SCT200 22/M04 A3001 RMK AO2 PK WND 35026/2154 SLP127 T02171044
KSLC 242054Z 30010G20KT 10SM SCT090 SCT140 SCT200 21/M04 A3001 RMK AO2 SLP128 T02111039 56010
KSLC 241954Z 34010G17KT 10SM SCT085 20/M03 A3001 RMK AO2 SLP129 T02001028
KSLC 241854Z 29013G18KT 10SM SCT085 BKN130 20/M03 A3002 RMK AO2 SLP132 T02001028
KSLC 241754Z 00000KT 10SM SCT085 BKN100 BKN130 18/M04 A3004 RMK AO2 SLP140 ACSL DSNT SE T01831039 10194 20094 51001
KSLC 241654Z COR 19004KT 10SM SCT100 SCT150 18/M03 A3004 RMK AO2 SLP136 T01831033
KSLC 241554Z 17005KT 10SM SCT100 SCT150 17/M04 A3004 RMK AO2 SLP139 T01671039
KSLC 241454Z 15006KT 10SM FEW090 SCT160 SCT220 13/M04 A3004 RMK AO2 SLP142 T01331039 53002
KSLC 241354Z 15007KT 10SM FEW160 SCT220 12/M04 A3003 RMK AO2 SLP139 T01171044
KSLC 241254Z 14008KT 10SM FEW120 FEW150 SCT200 10/M04 A3003 RMK AO2 SLP141 T01001044
KSLC 241154Z 12009KT 10SM BKN150 09/M03 A3003 RMK AO2 SLP140 T00941033 10122 20089 53000
KSLC 241054Z 14007KT 10SM SCT250 09/M04 A3003 RMK AO2 SLP140 T00941044
KSLC 240954Z 14006KT 10SM FEW180 10/M05 A3003 RMK AO2 SLP139 T01001050
KSLC 240854Z 13007KT 10SM FEW180 10/M06 A3003 RMK AO2 SLP139 T01001061 56007
KSLC 240754Z 18005KT 10SM SCT180 11/M07 A3003 RMK AO2 SLP140 T01061067
KSLC 240654Z 16004KT 10SM FEW120 SCT180 12/M07 A3004 RMK AO2 SLP143 T01171067 401890056
KSLC 240554Z 17004KT 10SM FEW120 SCT180 12/M07 A3005 RMK AO2 SLP148 T01221067 10189 20117 50007
KSLC 240454Z 00000KT 10SM SCT180 14/M04 A3005 RMK AO2 SLP148 T01441044
KSLC 240354Z 29006KT 10SM SCT180 15/M08 A3004 RMK AO2 SLP144 T01501083
KSLC 240254Z 26005KT 10SM FEW120 SCT210 15/M12 A3003 RMK AO2 SLP142 T01501122 56007
KSLC 240154Z 30004KT 10SM FEW095 BKN150 BKN210 18/M17 A3003 RMK AO2 SLP142 VIRGA T01781167